createdAt,value
2019-02-28T00:00:18.559Z,8.20
2019-02-28T00:02:46.990Z,8.00
2019-02-28T00:05:15.470Z,7.80
2019-02-28T00:07:43.908Z,7.60
2019-02-28T00:10:12.515Z,7.70
2019-02-28T00:12:40.944Z,7.90
2019-02-28T00:15:10.138Z,7.90
2019-02-28T00:17:42.538Z,8.10
2019-02-28T00:20:09.498Z,8.10
2019-02-28T00:22:37.942Z,8.20
2019-02-28T00:25:08.411Z,8.20
2019-02-28T00:27:36.996Z,8.20
2019-02-28T00:30:08.569Z,8.10
2019-02-28T00:32:37.055Z,8.20
2019-02-28T00:35:07.015Z,8.30
2019-02-28T00:37:35.534Z,8.10
2019-02-28T00:40:06.616Z,8.10
2019-02-28T00:42:35.115Z,8.20
2019-02-28T00:45:05.154Z,8.20
2019-02-28T00:47:33.593Z,8.10
2019-02-28T00:50:02.011Z,8.10
2019-02-28T00:52:32.072Z,8.10
2019-02-28T00:55:00.672Z,8.20
2019-02-28T00:57:29.087Z,8.20
2019-02-28T00:59:57.499Z,8.20
2019-02-28T01:02:25.944Z,8.20
2019-02-28T01:04:54.384Z,8.30
2019-02-28T01:07:22.823Z,8.30
2019-02-28T01:09:51.239Z,8.30
2019-02-28T01:12:20.184Z,8.40
2019-02-28T01:14:48.677Z,8.50
2019-02-28T01:17:17.107Z,8.40
2019-02-28T01:19:45.534Z,8.50
2019-02-28T01:22:14.113Z,8.60
2019-02-28T01:24:42.540Z,8.50
2019-02-28T01:27:10.979Z,8.50
2019-02-28T01:29:39.399Z,8.30
2019-02-28T01:32:07.802Z,8.30
2019-02-28T01:34:36.247Z,8.30
2019-02-28T01:37:04.754Z,8.30
2019-02-28T01:39:33.167Z,8.30
2019-02-28T01:42:01.626Z,8.30
2019-02-28T01:44:30.067Z,8.30
2019-02-28T01:46:58.487Z,8.10
2019-02-28T01:49:27.020Z,8.10
2019-02-28T01:51:55.527Z,8.20
2019-02-28T01:54:25.109Z,8.10
2019-02-28T01:56:54.198Z,8.10
2019-02-28T01:59:22.612Z,8.00
2019-02-28T02:01:51.043Z,8.10
2019-02-28T02:04:19.462Z,8.10
2019-02-28T02:06:48.411Z,8.10
2019-02-28T02:09:16.983Z,8.00
2019-02-28T02:11:45.458Z,8.00
2019-02-28T02:14:13.903Z,8.10
2019-02-28T02:16:42.338Z,8.00
2019-02-28T02:19:10.759Z,7.90
2019-02-28T02:21:39.182Z,8.00
2019-02-28T02:24:07.610Z,8.10
2019-02-28T02:26:36.118Z,8.10
2019-02-28T02:29:04.619Z,8.20
2019-02-28T02:31:33.112Z,8.20
2019-02-28T02:34:01.623Z,8.20
2019-02-28T02:36:30.136Z,8.00
2019-02-28T02:38:58.628Z,8.10
2019-02-28T02:41:27.055Z,8.10
2019-02-28T02:43:56.030Z,8.00
2019-02-28T02:46:24.600Z,8.00
2019-02-28T02:48:53.039Z,8.00
2019-02-28T02:51:21.462Z,7.90
2019-02-28T02:53:49.897Z,8.00
2019-02-28T02:56:18.295Z,8.00
2019-02-28T02:58:46.741Z,7.90
2019-02-28T03:01:15.150Z,8.00
2019-02-28T03:03:44.593Z,8.00
2019-02-28T03:06:14.328Z,7.90
2019-02-28T03:08:43.091Z,7.90
2019-02-28T03:11:11.530Z,8.00
2019-02-28T03:13:43.580Z,8.00
2019-02-28T03:16:10.116Z,8.00
2019-02-28T03:18:38.584Z,7.90
2019-02-28T03:21:07.018Z,7.90
2019-02-28T03:23:40.024Z,7.90
2019-02-28T03:26:07.089Z,8.00
2019-02-28T03:28:35.786Z,7.80
2019-02-28T03:31:11.635Z,7.70
2019-02-28T03:33:34.444Z,7.80
2019-02-28T03:36:02.897Z,7.70
2019-02-28T03:38:31.366Z,7.80
2019-02-28T03:40:59.863Z,7.90
2019-02-28T03:43:28.321Z,7.80
2019-02-28T03:45:56.880Z,7.70
2019-02-28T03:48:25.313Z,7.70
2019-02-28T03:50:55.282Z,7.70
2019-02-28T03:53:23.902Z,7.60
2019-02-28T03:55:52.383Z,7.50
2019-02-28T03:58:20.808Z,7.60
2019-02-28T04:00:49.219Z,7.50
2019-02-28T04:03:17.660Z,7.20
2019-02-28T04:05:46.144Z,7.10
2019-02-28T04:08:14.599Z,7.10
2019-02-28T04:10:43.019Z,7.00
2019-02-28T04:13:11.496Z,7.00
2019-02-28T04:15:49.869Z,7.10
2019-02-28T04:18:10.613Z,7.10
2019-02-28T04:20:39.092Z,7.20
2019-02-28T04:23:07.649Z,7.30
2019-02-28T04:25:36.063Z,7.20
2019-02-28T04:28:04.553Z,7.20
2019-02-28T04:30:34.384Z,7.10
2019-02-28T04:33:02.824Z,7.20
2019-02-28T04:35:31.303Z,7.10
2019-02-28T04:37:59.734Z,7.20
2019-02-28T04:40:28.168Z,7.20
2019-02-28T04:42:56.608Z,7.30
2019-02-28T04:45:26.134Z,7.00
2019-02-28T04:47:55.180Z,7.00
2019-02-28T04:50:23.671Z,7.00
2019-02-28T04:52:52.179Z,6.80
2019-02-28T04:55:20.678Z,6.80
2019-02-28T04:57:51.643Z,7.00
2019-02-28T05:00:19.416Z,6.80
2019-02-28T05:02:47.965Z,6.70
2019-02-28T05:05:16.404Z,6.80
2019-02-28T05:07:44.829Z,6.70
2019-02-28T05:10:13.547Z,6.70
2019-02-28T05:12:42.115Z,6.80
2019-02-28T05:15:12.769Z,6.70
2019-02-28T05:17:41.296Z,6.80
2019-02-28T05:20:12.082Z,6.90
2019-02-28T05:22:41.084Z,6.80
2019-02-28T05:25:10.709Z,6.70
2019-02-28T05:27:39.124Z,6.60
2019-02-28T05:30:19.284Z,6.40
2019-02-28T05:32:47.511Z,6.40
2019-02-28T05:35:15.955Z,6.30
2019-02-28T05:37:48.106Z,6.40
2019-02-28T05:40:15.483Z,6.40
2019-02-28T05:42:43.919Z,6.30
2019-02-28T05:45:14.568Z,6.20
2019-02-28T05:47:46.830Z,6.10
2019-02-28T05:50:16.642Z,6.00
2019-02-28T05:52:43.897Z,6.10
2019-02-28T05:55:12.543Z,6.30
2019-02-28T05:57:43.354Z,6.30
2019-02-28T06:00:17.213Z,6.30
2019-02-28T06:02:45.644Z,6.30
2019-02-28T06:05:14.206Z,6.30
2019-02-28T06:07:42.709Z,6.20
2019-02-28T06:10:14.952Z,6.20
2019-02-28T06:12:44.229Z,6.10
2019-02-28T06:15:16.622Z,6.10
2019-02-28T06:17:45.112Z,6.00
2019-02-28T06:20:16.515Z,6.10
2019-02-28T06:22:44.608Z,6.20
2019-02-28T06:25:18.175Z,6.30
2019-02-28T06:27:48.984Z,6.40
2019-02-28T06:30:16.434Z,6.20
2019-02-28T06:32:44.922Z,6.30
2019-02-28T06:35:16.572Z,6.30
2019-02-28T06:37:43.633Z,6.40
2019-02-28T06:40:16.653Z,6.30
2019-02-28T06:42:46.718Z,6.40
2019-02-28T06:45:17.582Z,6.40
2019-02-28T06:47:49.706Z,6.50
2019-02-28T06:50:16.588Z,6.60
2019-02-28T06:52:45.043Z,6.70
2019-02-28T06:55:21.183Z,6.70
2019-02-28T06:57:49.621Z,5.00
2019-02-28T07:00:18.542Z,6.80
2019-02-28T07:02:47.057Z,6.90
2019-02-28T07:05:15.612Z,6.80
2019-02-28T07:07:45.862Z,6.90
2019-02-28T07:10:15.762Z,7.00
2019-02-28T07:12:44.283Z,7.10
2019-02-28T07:15:13.408Z,7.10
2019-02-28T07:17:42.642Z,7.30
2019-02-28T07:20:14.811Z,7.30
2019-02-28T07:22:43.238Z,7.30
2019-02-28T07:25:12.873Z,7.40
2019-02-28T07:27:42.338Z,7.50
2019-02-28T07:30:18.693Z,7.50
2019-02-28T07:32:47.627Z,7.60
2019-02-28T07:35:16.043Z,7.70
2019-02-28T07:37:44.474Z,7.80
2019-02-28T07:40:17.491Z,7.80
2019-02-28T07:42:46.261Z,7.90
2019-02-28T07:45:15.700Z,8.00
2019-02-28T07:47:44.327Z,8.10
2019-02-28T07:50:14.480Z,8.00
2019-02-28T07:52:43.096Z,8.00
2019-02-28T07:55:18.839Z,8.10
2019-02-28T07:57:50.963Z,8.10
2019-02-28T08:00:22.325Z,8.20
2019-02-28T08:02:50.943Z,8.30
2019-02-28T08:05:19.796Z,8.40
2019-02-28T08:07:52.163Z,8.50
2019-02-28T08:10:29.862Z,8.60
2019-02-28T08:12:58.458Z,8.70
2019-02-28T08:15:28.686Z,8.90
2019-02-28T08:17:57.130Z,8.80
2019-02-28T08:20:25.903Z,9.00
2019-02-28T08:22:56.878Z,9.10
2019-02-28T08:25:24.650Z,9.00
2019-02-28T08:27:53.086Z,9.10
2019-02-28T08:30:23.613Z,9.20
2019-02-28T08:32:52.135Z,9.30
2019-02-28T08:35:20.640Z,9.40
2019-02-28T08:37:55.365Z,9.40
2019-02-28T08:40:22.186Z,9.50
2019-02-28T08:42:50.823Z,9.50
2019-02-28T08:45:20.219Z,9.50
2019-02-28T08:47:48.731Z,9.60
2019-02-28T08:50:23.628Z,9.60
2019-02-28T08:52:55.335Z,9.70
2019-02-28T08:55:28.622Z,9.80
2019-02-28T08:57:55.901Z,9.70
2019-02-28T09:00:31.109Z,9.80
2019-02-28T09:02:54.711Z,9.90
2019-02-28T09:05:26.160Z,9.90
2019-02-28T09:07:53.411Z,9.90
2019-02-28T09:10:23.293Z,9.80
2019-02-28T09:12:51.792Z,9.80
2019-02-28T09:15:20.651Z,9.80
2019-02-28T09:17:49.324Z,9.90
2019-02-28T09:20:17.930Z,9.90
2019-02-28T09:22:46.451Z,9.80
2019-02-28T09:25:21.404Z,9.90
2019-02-28T09:27:47.549Z,10.00
2019-02-28T09:30:21.714Z,10.00
2019-02-28T09:32:50.154Z,9.90
2019-02-28T09:35:18.639Z,9.80
2019-02-28T09:37:47.157Z,9.90
2019-02-28T09:40:16.004Z,9.90
2019-02-28T09:42:44.642Z,10.10
2019-02-28T09:45:24.219Z,10.20
2019-02-28T09:47:52.648Z,10.30
2019-02-28T09:50:23.260Z,10.40
2019-02-28T09:52:52.113Z,10.40
2019-02-28T09:55:20.562Z,10.60
2019-02-28T09:57:53.689Z,10.60
2019-02-28T10:00:20.839Z,10.60
2019-02-28T10:02:49.322Z,10.80
2019-02-28T10:05:17.911Z,10.80
2019-02-28T10:07:46.488Z,11.00
2019-02-28T10:10:28.948Z,11.10
2019-02-28T10:12:57.374Z,11.20
2019-02-28T10:15:26.343Z,11.30
2019-02-28T10:17:54.855Z,11.30
2019-02-28T10:20:27.175Z,11.40
2019-02-28T10:22:55.911Z,11.50
2019-02-28T10:25:24.417Z,11.50
2019-02-28T10:27:54.513Z,11.60
2019-02-28T10:30:31.784Z,11.50
2019-02-28T10:32:55.090Z,11.60
2019-02-28T10:35:23.683Z,11.70
2019-02-28T10:37:57.070Z,11.50
2019-02-28T10:40:26.665Z,11.50
2019-02-28T10:42:55.631Z,11.60
2019-02-28T10:45:24.957Z,11.70
2019-02-28T10:47:53.386Z,11.90
2019-02-28T10:50:32.179Z,11.90
2019-02-28T10:52:57.616Z,12.10
2019-02-28T10:55:26.374Z,12.00
2019-02-28T10:57:54.884Z,12.10
2019-02-28T11:00:29.339Z,12.20
2019-02-28T11:02:58.588Z,12.40
2019-02-28T11:05:32.686Z,12.40
2019-02-28T11:08:01.778Z,12.30
2019-02-28T11:10:35.619Z,12.40
2019-02-28T11:13:02.570Z,12.40
2019-02-28T11:15:31.227Z,12.60
2019-02-28T11:17:59.851Z,12.70
2019-02-28T11:20:28.419Z,12.90
2019-02-28T11:22:57.082Z,13.10
2019-02-28T11:25:26.874Z,13.20
2019-02-28T11:27:55.370Z,13.20
2019-02-28T11:30:26.683Z,13.40
2019-02-28T11:32:55.259Z,13.30
2019-02-28T11:35:24.158Z,13.20
2019-02-28T11:37:52.750Z,13.40
2019-02-28T11:40:23.909Z,13.60
2019-02-28T11:42:52.398Z,13.70
2019-02-28T11:45:25.515Z,13.80
2019-02-28T11:47:55.787Z,13.80
2019-02-28T11:50:24.256Z,13.90
2019-02-28T11:52:53.095Z,14.00
2019-02-28T11:55:21.584Z,14.20
2019-02-28T11:57:50.358Z,14.30
2019-02-28T12:00:25.952Z,14.40
2019-02-28T12:02:59.861Z,14.30
2019-02-28T12:05:24.739Z,14.10
2019-02-28T12:07:53.154Z,14.30
2019-02-28T12:10:21.594Z,14.50
2019-02-28T12:12:50.106Z,14.60
2019-02-28T12:15:24.422Z,14.60
2019-02-28T12:17:52.854Z,14.70
2019-02-28T12:20:26.113Z,14.90
2019-02-28T12:22:51.534Z,14.60
2019-02-28T12:25:21.399Z,14.20
2019-02-28T12:27:49.826Z,14.30
2019-02-28T12:30:21.916Z,14.00
2019-02-28T12:32:52.460Z,13.90
2019-02-28T12:35:20.671Z,13.70
2019-02-28T12:37:49.191Z,13.50
2019-02-28T12:40:20.803Z,13.40
2019-02-28T12:42:49.214Z,13.30
2019-02-28T12:45:24.501Z,13.30
2019-02-28T12:47:53.579Z,13.40
2019-02-28T12:50:21.993Z,13.50
2019-02-28T12:52:50.654Z,13.60
2019-02-28T12:55:20.610Z,13.60
2019-02-28T12:57:49.191Z,13.60
2019-02-28T13:00:32.643Z,13.60
2019-02-28T13:03:01.173Z,13.80
2019-02-28T13:05:30.034Z,13.80
2019-02-28T13:07:58.477Z,14.10
2019-02-28T13:10:28.564Z,14.50
2019-02-28T13:13:05.641Z,14.70
2019-02-28T13:15:28.266Z,14.70
2019-02-28T13:17:56.971Z,14.90
2019-02-28T13:20:32.208Z,14.70
2019-02-28T13:22:59.449Z,14.70
2019-02-28T13:25:28.433Z,14.40
2019-02-28T13:27:57.012Z,14.30
2019-02-28T13:30:27.634Z,14.40
2019-02-28T13:32:56.135Z,14.20
2019-02-28T13:35:27.455Z,14.10
2019-02-28T13:37:56.015Z,14.10
2019-02-28T13:40:24.658Z,14.10
2019-02-28T13:42:53.098Z,14.20
2019-02-28T13:45:23.630Z,14.10
2019-02-28T13:47:53.174Z,14.20
2019-02-28T13:50:32.700Z,14.30
2019-02-28T13:53:03.405Z,14.30
2019-02-28T13:55:31.604Z,14.30
2019-02-28T13:58:00.424Z,14.20
2019-02-28T14:00:33.695Z,14.20
2019-02-28T14:03:09.581Z,14.20
2019-02-28T14:05:40.856Z,14.20
2019-02-28T14:08:11.143Z,14.20
2019-02-28T14:10:37.719Z,14.10
2019-02-28T14:13:06.447Z,14.20
2019-02-28T14:15:42.885Z,14.20
2019-02-28T14:18:12.216Z,14.20
2019-02-28T14:20:40.740Z,14.20
2019-02-28T14:23:09.571Z,14.20
2019-02-28T14:25:39.834Z,14.10
2019-02-28T14:28:08.211Z,14.00
2019-02-28T14:30:36.655Z,14.00
2019-02-28T14:33:05.423Z,14.00
2019-02-28T14:35:36.565Z,13.90
2019-02-28T14:38:04.468Z,13.90
2019-02-28T14:40:32.878Z,13.90
2019-02-28T14:43:01.386Z,13.90
2019-02-28T14:45:35.525Z,13.90
2019-02-28T14:48:05.774Z,13.90
2019-02-28T14:50:34.290Z,13.90
2019-02-28T14:53:02.713Z,13.80
2019-02-28T14:55:32.632Z,13.80
2019-02-28T14:58:01.374Z,13.80
2019-02-28T15:00:35.470Z,13.80
2019-02-28T15:03:04.450Z,13.80
2019-02-28T15:05:35.966Z,13.80
2019-02-28T15:08:04.659Z,13.70
2019-02-28T15:10:34.201Z,13.70
2019-02-28T15:13:04.890Z,13.60
2019-02-28T15:15:36.069Z,13.50
2019-02-28T15:18:04.893Z,13.40
2019-02-28T15:20:33.457Z,13.40
2019-02-28T15:23:01.985Z,13.40
2019-02-28T15:25:30.997Z,13.40
2019-02-28T15:27:59.486Z,13.30
2019-02-28T15:30:41.466Z,13.30
2019-02-28T15:33:10.027Z,13.30
2019-02-28T15:35:38.523Z,13.20
2019-02-28T15:38:09.386Z,13.20
2019-02-28T15:40:42.765Z,13.10
2019-02-28T15:43:16.890Z,13.10
2019-02-28T15:45:42.367Z,13.00
2019-02-28T15:48:10.948Z,12.90
2019-02-28T15:50:39.367Z,12.90
2019-02-28T15:53:11.289Z,12.80
2019-02-28T15:55:38.426Z,12.70
2019-02-28T15:58:07.227Z,12.70
2019-02-28T16:00:37.352Z,12.60
2019-02-28T16:03:06.357Z,12.50
2019-02-28T16:05:34.870Z,12.50
2019-02-28T16:08:08.947Z,12.40
2019-02-28T16:10:34.988Z,12.20
2019-02-28T16:13:06.330Z,12.10
2019-02-28T16:15:35.033Z,11.90
2019-02-28T16:18:03.626Z,11.70
2019-02-28T16:20:32.907Z,11.60
2019-02-28T16:23:01.667Z,11.50
2019-02-28T16:25:33.050Z,11.40
2019-02-28T16:28:04.414Z,11.40
2019-02-28T16:30:32.698Z,11.20
2019-02-28T16:33:01.746Z,11.10
2019-02-28T16:35:30.206Z,10.90
2019-02-28T16:37:58.676Z,10.90
2019-02-28T16:40:29.067Z,10.80
2019-02-28T16:42:57.588Z,10.80
2019-02-28T16:45:37.500Z,10.70
2019-02-28T16:48:06.467Z,10.70
2019-02-28T16:50:34.987Z,10.70
2019-02-28T16:53:04.043Z,10.60
2019-02-28T16:55:32.574Z,10.70
2019-02-28T16:58:01.008Z,10.60
2019-02-28T17:00:29.676Z,10.60
2019-02-28T17:02:58.127Z,10.60
2019-02-28T17:05:28.117Z,10.60
2019-02-28T17:07:56.910Z,10.60
2019-02-28T17:10:27.058Z,10.60
2019-02-28T17:13:15.504Z,10.60
2019-02-28T17:16:02.630Z,10.60
2019-02-28T17:18:32.950Z,10.50
2019-02-28T17:21:01.471Z,10.60
2019-02-28T17:23:29.896Z,10.50
2019-02-28T17:25:58.540Z,10.50
2019-02-28T17:28:49.839Z,10.50
2019-02-28T17:31:37.124Z,10.50
2019-02-28T17:34:05.771Z,10.50
2019-02-28T17:36:34.323Z,10.50
2019-02-28T17:39:03.219Z,10.40
2019-02-28T17:41:34.020Z,10.50
2019-02-28T17:44:23.132Z,10.50
2019-02-28T17:46:56.950Z,10.50
2019-02-28T17:49:36.528Z,10.50
2019-02-28T17:52:08.094Z,10.50
2019-02-28T17:54:48.683Z,10.50
2019-02-28T17:57:32.239Z,10.50
2019-02-28T18:00:16.205Z,10.40
2019-02-28T18:03:09.780Z,10.50
2019-02-28T18:05:51.517Z,10.50
2019-02-28T18:08:32.209Z,10.50
2019-02-28T18:11:22.767Z,10.50
2019-02-28T18:14:03.434Z,10.40
2019-02-28T18:17:01.352Z,10.40
2019-02-28T18:19:44.995Z,10.50
2019-02-28T18:22:37.826Z,10.40
2019-02-28T18:25:18.535Z,10.40
2019-02-28T18:28:06.396Z,10.30
2019-02-28T18:31:12.664Z,10.30
2019-02-28T18:33:52.911Z,10.30
2019-02-28T18:36:26.869Z,10.20
2019-02-28T18:38:55.394Z,10.30
2019-02-28T18:41:23.819Z,10.20
2019-02-28T18:43:52.235Z,10.30
2019-02-28T18:46:20.759Z,10.30
2019-02-28T18:48:51.334Z,10.30
2019-02-28T18:51:19.356Z,10.30
2019-02-28T18:53:47.901Z,10.30
2019-02-28T18:56:16.327Z,10.40
2019-02-28T18:58:44.754Z,10.40
2019-02-28T19:01:13.273Z,10.40
2019-02-28T19:03:41.688Z,10.50
2019-02-28T19:06:10.204Z,10.50
2019-02-28T19:08:38.669Z,10.50
2019-02-28T19:11:07.230Z,10.50
2019-02-28T19:13:36.655Z,10.50
2019-02-28T19:16:05.214Z,10.50
2019-02-28T19:18:33.632Z,10.50
2019-02-28T19:21:02.073Z,10.50
2019-02-28T19:23:30.575Z,10.50
2019-02-28T19:25:59.082Z,10.50
2019-02-28T19:28:27.531Z,10.50
2019-02-28T19:30:56.031Z,10.40
2019-02-28T19:33:24.451Z,10.40
2019-02-28T19:35:52.974Z,10.40
2019-02-28T19:38:21.407Z,10.40
2019-02-28T19:40:49.842Z,10.40
2019-02-28T19:43:18.304Z,10.40
2019-02-28T19:45:50.076Z,10.40
2019-02-28T19:48:18.526Z,10.40
2019-02-28T19:50:47.041Z,10.40
2019-02-28T19:53:15.535Z,10.40
2019-02-28T19:55:44.032Z,10.40
2019-02-28T19:58:12.447Z,10.30
2019-02-28T20:00:40.979Z,10.30
2019-02-28T20:03:09.411Z,10.30
2019-02-28T20:05:38.020Z,10.40
2019-02-28T20:08:06.435Z,10.40
2019-02-28T20:10:35.027Z,10.40
2019-02-28T20:13:04.222Z,10.40
2019-02-28T20:15:34.311Z,10.30
2019-02-28T20:18:02.918Z,10.30
2019-02-28T20:20:31.402Z,10.30
2019-02-28T20:22:59.924Z,10.30
2019-02-28T20:25:28.425Z,10.30
2019-02-28T20:27:56.995Z,10.30
2019-02-28T20:30:27.148Z,10.20
2019-02-28T20:32:56.091Z,10.30
2019-02-28T20:35:26.740Z,10.30
2019-02-28T20:37:54.832Z,10.30
2019-02-28T20:40:26.395Z,10.40
2019-02-28T20:42:54.991Z,10.40
2019-02-28T20:45:23.580Z,10.30
2019-02-28T20:47:52.028Z,10.30
2019-02-28T20:50:23.871Z,10.30
2019-02-28T20:52:52.315Z,10.30
2019-02-28T20:55:20.719Z,10.30
2019-02-28T20:57:49.175Z,10.30
2019-02-28T21:00:19.967Z,10.30
2019-02-28T21:02:48.402Z,10.40
2019-02-28T21:05:16.821Z,10.30
2019-02-28T21:07:45.265Z,10.30
2019-02-28T21:10:13.667Z,10.30
2019-02-28T21:12:42.225Z,10.30
2019-02-28T21:15:12.470Z,10.30
2019-02-28T21:17:40.912Z,10.30
2019-02-28T21:20:14.460Z,10.30
2019-02-28T21:22:42.870Z,10.30
2019-02-28T21:25:18.453Z,10.30
2019-02-28T21:27:46.930Z,10.20
2019-02-28T21:30:23.096Z,10.20
2019-02-28T21:32:51.503Z,10.20
2019-02-28T21:35:20.665Z,10.20
2019-02-28T21:37:49.344Z,10.20
2019-02-28T21:40:19.011Z,10.20
2019-02-28T21:42:47.464Z,10.10
2019-02-28T21:45:18.491Z,10.10
2019-02-28T21:47:47.058Z,10.10
2019-02-28T21:50:18.639Z,10.00
2019-02-28T21:52:47.245Z,9.90
2019-02-28T21:55:16.612Z,9.90
2019-02-28T21:57:45.249Z,9.80
2019-02-28T22:00:21.790Z,9.70
2019-02-28T22:02:50.227Z,9.60
2019-02-28T22:05:18.719Z,9.60
2019-02-28T22:07:47.217Z,9.60
2019-02-28T22:10:16.376Z,9.50
2019-02-28T22:12:44.887Z,9.40
2019-02-28T22:15:23.272Z,9.30
2019-02-28T22:17:51.768Z,9.20
2019-02-28T22:20:20.290Z,9.30
2019-02-28T22:22:48.696Z,9.30
2019-02-28T22:25:17.665Z,9.40
2019-02-28T22:27:46.121Z,9.40
2019-02-28T22:30:20.987Z,9.30
2019-02-28T22:32:54.147Z,9.30
2019-02-28T22:35:24.206Z,9.30
2019-02-28T22:37:52.629Z,9.30
2019-02-28T22:40:21.059Z,9.20
2019-02-28T22:42:49.496Z,9.20
2019-02-28T22:45:17.942Z,9.20
2019-02-28T22:47:46.456Z,9.30
2019-02-28T22:50:15.018Z,9.30
2019-02-28T22:52:43.514Z,9.30
2019-02-28T22:55:12.062Z,9.30
2019-02-28T22:57:40.574Z,9.30
2019-02-28T23:00:30.589Z,9.30
2019-02-28T23:02:59.029Z,9.30
2019-02-28T23:05:27.440Z,9.50
2019-02-28T23:07:57.259Z,9.50
2019-02-28T23:10:25.888Z,9.50
2019-02-28T23:12:54.294Z,9.40
2019-02-28T23:15:22.808Z,9.50
2019-02-28T23:17:51.236Z,9.50
2019-02-28T23:20:19.672Z,9.40
2019-02-28T23:22:48.078Z,9.40
2019-02-28T23:25:16.511Z,9.40
2019-02-28T23:27:44.919Z,9.30
2019-02-28T23:30:22.037Z,9.20
2019-02-28T23:32:59.249Z,9.20
2019-02-28T23:35:32.963Z,9.20
2019-02-28T23:38:01.393Z,9.30
2019-02-28T23:40:29.813Z,9.20
2019-02-28T23:42:58.246Z,9.30
2019-02-28T23:45:26.723Z,9.20
2019-02-28T23:47:55.221Z,9.20
2019-02-28T23:50:23.712Z,9.10
2019-02-28T23:52:52.223Z,9.10
2019-02-28T23:55:20.647Z,9.10
2019-02-28T23:57:49.062Z,9.10
